Time;durP1;ratioP1;P1;durP2;ratioP2;P2;SDS_P1;SDS_P2;PMS_P1;PMS_P2;Temp;Humidity;BMP_temperature;BMP_pressure;BME280_temperature;BME280_humidity;BME280_pressure;Samples;Min_cycle;Max_cycle;Signal;HPM_P1;HPM_P2
2021/04/23 00:02:20;;;;;;;11.97;6.57;;;5.90;58.40;;;;;;4918818;29;20186;-87
2021/04/23 00:04:45;;;;;;;9.80;5.20;;;6.00;57.70;;;;;;4918770;29;20175;-87
2021/04/23 00:07:11;;;;;;;6.37;5.10;;;5.80;58.00;;;;;;4935919;29;20179;-86
2021/04/23 00:09:37;;;;;;;7.13;5.47;;;5.60;58.30;;;;;;4918656;29;20301;-87
2021/04/23 00:12:11;;;;;;;6.77;5.47;;;5.60;58.70;;;;;;4918707;29;20390;-87
2021/04/23 00:14:47;;;;;;;6.68;5.03;;;5.60;59.00;;;;;;4918501;29;20785;-87
2021/04/23 00:17:13;;;;;;;6.65;5.72;;;5.50;58.80;;;;;;4950429;29;20639;-87
2021/04/23 00:19:47;;;;;;;9.13;6.20;;;5.40;58.80;;;;;;4935572;29;20270;-87
2021/04/23 00:22:13;;;;;;;7.55;5.45;;;5.50;58.50;;;;;;4935742;29;20167;-87
2021/04/23 00:24:39;;;;;;;7.32;5.65;;;5.40;59.00;;;;;;4918634;29;20534;-87
2021/04/23 00:27:05;;;;;;;8.18;5.30;;;5.40;59.20;;;;;;4918600;29;20179;-87
2021/04/23 00:29:32;;;;;;;12.60;6.15;;;5.30;59.30;;;;;;4935473;29;20203;-87
2021/04/23 00:34:42;;;;;;;6.47;5.88;;;5.30;59.50;;;;;;4935684;29;20656;-87
2021/04/23 00:37:08;;;;;;;9.20;7.07;;;5.30;59.60;;;;;;4950199;28;20223;-86
2021/04/23 00:39:35;;;;;;;7.00;6.50;;;6.40;61.90;;;;;;4935524;29;20185;-87
2021/04/23 00:42:02;;;;;;;9.07;5.90;;;5.00;60.40;;;;;;4936411;29;20394;-86
2021/04/23 00:44:28;;;;;;;15.60;7.03;;;5.00;60.90;;;;;;4922212;29;20222;-87
2021/04/23 00:46:53;;;;;;;7.30;6.17;;;5.00;61.00;;;;;;4939411;29;20175;-86
2021/04/23 00:49:19;;;;;;;7.30;6.57;;;5.00;61.20;;;;;;4922130;29;20604;-86
2021/04/23 00:51:52;;;;;;;8.57;5.80;;;4.90;62.00;;;;;;4922173;29;20259;-86
2021/04/23 00:54:18;;;;;;;8.52;7.82;;;4.90;62.10;;;;;;4939021;29;20231;-86
2021/04/23 00:56:44;;;;;;;9.40;6.30;;;5.00;61.60;;;;;;4921984;29;20182;-86
2021/04/23 00:59:11;;;;;;;15.07;6.60;;;5.00;61.50;;;;;;4939055;29;20231;-86
2021/04/23 01:01:48;;;;;;;10.07;6.20;;;5.00;61.40;;;;;;4921919;29;20179;-86
2021/04/23 01:04:17;;;;;;;10.68;5.50;;;4.90;61.90;;;;;;4939130;29;20199;-86
2021/04/23 01:06:42;;;;;;;12.02;6.43;;;4.90;62.40;;;;;;4953780;29;20266;-85
2021/04/23 01:09:12;;;;;;;6.80;6.20;;;4.90;62.40;;;;;;4938962;29;20286;-85
2021/04/23 01:11:38;;;;;;;9.55;5.85;;;4.90;60.90;;;;;;4938848;29;20230;-86
2021/04/23 01:14:05;;;;;;;15.20;6.65;;;4.80;60.30;;;;;;4939034;29;20202;-86
2021/04/23 01:16:31;;;;;;;9.35;6.90;;;4.80;60.90;;;;;;4921689;29;20207;-86
2021/04/23 01:18:57;;;;;;;17.45;6.88;;;4.70;61.60;;;;;;4938884;29;20563;-86
2021/04/23 01:21:31;;;;;;;7.23;5.93;;;4.70;61.50;;;;;;4938761;29;20214;-86
2021/04/23 01:23:59;;;;;;;8.27;6.40;;;4.60;61.80;;;;;;4938620;29;20382;-86
2021/04/23 01:26:28;;;;;;;10.63;6.95;;;4.50;61.30;;;;;;4953205;29;20175;-86
2021/04/23 01:28:55;;;;;;;11.52;6.50;;;4.40;62.00;;;;;;4938545;29;20199;-85
2021/04/23 01:31:24;;;;;;;14.57;6.90;;;4.50;61.40;;;;;;4938497;29;20255;-88
2021/04/23 01:33:52;;;;;;;10.43;5.80;;;4.50;60.80;;;;;;4938450;29;20504;-88
2021/04/23 01:36:18;;;;;;;8.75;7.10;;;4.30;61.50;;;;;;4921293;29;20175;-86
2021/04/23 01:38:46;;;;;;;11.57;5.63;;;4.20;61.90;;;;;;4921346;29;20335;-86
2021/04/23 01:41:12;;;;;;;8.95;5.80;;;4.30;61.50;;;;;;4938286;29;20170;-86
2021/04/23 01:43:38;;;;;;;11.60;6.00;;;4.20;61.80;;;;;;4938316;29;20183;-87
2021/04/23 01:46:05;;;;;;;6.90;5.87;;;4.10;60.70;;;;;;4936746;29;20415;-86
2021/04/23 01:48:31;;;;;;;11.45;6.15;;;4.20;60.30;;;;;;4938182;29;20190;-86
2021/04/23 01:50:58;;;;;;;10.30;6.10;;;4.20;60.80;;;;;;4938163;29;20568;-86
2021/04/23 01:53:23;;;;;;;8.70;6.55;;;4.20;60.80;;;;;;4920064;29;20512;-87
2021/04/23 01:55:49;;;;;;;7.60;6.10;;;4.00;61.30;;;;;;4938199;29;20251;-86
2021/04/23 01:58:14;;;;;;;7.37;6.67;;;3.90;62.60;;;;;;4938037;29;20175;-86
2021/04/23 02:00:45;;;;;;;10.13;6.53;;;3.90;61.70;;;;;;4920941;29;20171;-87
2021/04/23 02:03:11;;;;;;;12.80;7.03;;;3.70;62.90;;;;;;4920746;29;20635;-86
2021/04/23 02:05:38;;;;;;;13.18;6.90;;;3.60;64.40;;;;;;4937802;29;20179;-86
2021/04/23 02:08:07;;;;;;;6.43;5.70;;;3.60;64.00;;;;;;4937778;29;20251;-87
2021/04/23 02:10:39;;;;;;;6.45;5.75;;;3.70;64.10;;;;;;4937983;29;20261;-86
2021/04/23 02:13:05;;;;;;;9.02;6.63;;;3.80;64.20;;;;;;4920671;29;20175;-86
2021/04/23 02:15:31;;;;;;;6.63;5.60;;;3.40;63.20;;;;;;4937705;29;20176;-87
2021/04/23 02:17:58;;;;;;;7.32;6.45;;;3.90;63.10;;;;;;4920694;29;20944;-86
2021/04/23 02:20:27;;;;;;;7.20;5.68;;;3.80;63.50;;;;;;4937947;29;20168;-87
2021/04/23 02:22:54;;;;;;;10.38;6.60;;;3.70;63.70;;;;;;4920498;29;20179;-86
2021/04/23 02:25:21;;;;;;;8.57;6.75;;;3.70;63.70;;;;;;4937830;29;20179;-86
2021/04/23 02:27:47;;;;;;;9.25;6.28;;;3.80;63.90;;;;;;4937518;29;20518;-86
2021/04/23 02:30:17;;;;;;;8.57;7.05;;;3.80;63.70;;;;;;4937561;29;20672;-86
2021/04/23 02:32:43;;;;;;;7.68;6.95;;;3.70;64.00;;;;;;4920255;29;20183;-86
2021/04/23 02:35:11;;;;;;;8.88;6.57;;;3.60;65.20;;;;;;4937416;29;20221;-86
2021/04/23 02:37:38;;;;;;;9.68;6.45;;;3.60;64.20;;;;;;4937494;29;20169;-86
2021/04/23 02:40:06;;;;;;;9.52;7.32;;;3.50;64.40;;;;;;4937328;29;20594;-86
2021/04/23 02:42:32;;;;;;;6.88;6.35;;;3.50;63.90;;;;;;4920160;29;20225;-86
2021/04/23 02:44:58;;;;;;;11.55;7.28;;;4.20;67.00;;;;;;4920080;29;20180;-86
2021/04/23 02:47:24;;;;;;;9.67;6.00;;;3.30;64.40;;;;;;4920030;29;20270;-87
2021/04/23 02:49:49;;;;;;;12.83;7.10;;;3.30;65.20;;;;;;4919840;29;20449;-86
2021/04/23 02:52:15;;;;;;;7.60;6.50;;;3.20;65.50;;;;;;4937025;29;20167;-86
2021/04/23 02:54:41;;;;;;;11.00;5.60;;;3.30;65.60;;;;;;4936939;29;20214;-85
2021/04/23 02:57:07;;;;;;;10.67;6.20;;;3.40;64.60;;;;;;4937024;29;20175;-87
2021/04/23 02:59:32;;;;;;;12.33;6.70;;;3.40;64.00;;;;;;4936983;29;20171;-86
2021/04/23 03:01:58;;;;;;;8.50;6.30;;;3.20;65.30;;;;;;4936886;29;20201;-85
2021/04/23 03:04:24;;;;;;;10.17;5.90;;;3.20;66.20;;;;;;4919798;29;20620;-85
2021/04/23 03:06:51;;;;;;;7.40;6.70;;;3.30;65.80;;;;;;4935979;29;20427;-85
2021/04/23 03:09:16;;;;;;;9.38;7.07;;;3.20;65.40;;;;;;4936794;29;20467;-86
2021/04/23 03:11:42;;;;;;;7.60;6.90;;;3.10;65.60;;;;;;4936941;29;20163;-86
2021/04/23 03:14:09;;;;;;;10.10;6.65;;;3.10;65.70;;;;;;4936811;29;20171;-84
2021/04/23 03:16:37;;;;;;;11.90;7.90;;;3.20;65.70;;;;;;4936562;29;20173;-85
2021/04/23 03:19:10;;;;;;;10.35;7.90;;;3.10;65.30;;;;;;4936521;29;20179;-86
2021/04/23 03:21:35;;;;;;;8.68;7.45;;;3.00;65.50;;;;;;4951278;29;20179;-86
2021/04/23 03:24:01;;;;;;;12.63;8.50;;;3.00;67.10;;;;;;4936639;29;20178;-86
2021/04/23 03:26:27;;;;;;;11.10;7.23;;;3.00;66.90;;;;;;4936634;29;20171;-86
2021/04/23 03:28:52;;;;;;;9.20;7.47;;;2.90;66.50;;;;;;4951236;28;20197;-86
2021/04/23 03:31:19;;;;;;;11.10;7.10;;;2.90;66.40;;;;;;4951347;29;20209;-86
2021/04/23 03:33:45;;;;;;;8.30;6.85;;;2.90;66.40;;;;;;4951046;29;20447;-86
2021/04/23 03:36:13;;;;;;;11.93;7.60;;;2.80;66.70;;;;;;4936461;29;20171;-86
2021/04/23 03:38:41;;;;;;;10.35;7.45;;;2.80;66.70;;;;;;4936418;29;20404;-86
2021/04/23 03:41:11;;;;;;;10.23;7.15;;;2.80;66.80;;;;;;4935091;29;20172;-86
2021/04/23 03:43:38;;;;;;;17.33;8.05;;;2.90;67.10;;;;;;4936270;29;20176;-86
2021/04/23 03:46:04;;;;;;;13.43;7.90;;;2.80;66.70;;;;;;4936612;29;20163;-86
2021/04/23 03:48:30;;;;;;;11.15;8.18;;;2.70;67.10;;;;;;4935967;29;20183;-86
2021/04/23 03:50:56;;;;;;;12.37;7.90;;;2.70;68.00;;;;;;4936566;29;20181;-86
2021/04/23 03:53:22;;;;;;;14.30;8.60;;;2.80;67.80;;;;;;4935905;29;20226;-85
2021/04/23 03:55:52;;;;;;;9.47;7.33;;;2.80;67.70;;;;;;4936013;29;20921;-85
2021/04/23 03:58:21;;;;;;;10.57;8.20;;;2.90;67.50;;;;;;4935874;29;20419;-85
2021/04/23 04:01:18;;;;;;;12.27;7.60;;;3.10;67.30;;;;;;4935957;29;20168;-86
2021/04/23 04:03:45;;;;;;;7.63;6.80;;;2.50;66.80;;;;;;4927957;29;20190;-85
2021/04/23 04:06:11;;;;;;;19.13;8.00;;;2.50;67.70;;;;;;4250061;29;10000718;-85
2021/04/23 04:08:37;;;;;;;12.07;7.87;;;2.60;67.50;;;;;;4952467;28;20171;-86
2021/04/23 04:11:04;;;;;;;9.93;6.97;;;2.50;67.70;;;;;;4953225;29;20194;-85
2021/04/23 04:13:30;;;;;;;9.65;8.10;;;2.70;67.40;;;;;;4935182;29;20178;-86
2021/04/23 04:15:56;;;;;;;13.77;7.50;;;2.60;67.30;;;;;;4952794;29;20177;-86
2021/04/23 04:18:22;;;;;;;11.17;6.50;;;2.60;67.70;;;;;;4951989;29;20638;-84
2021/04/23 04:20:50;;;;;;;10.38;7.35;;;2.60;67.40;;;;;;4953087;29;20202;-86
2021/04/23 04:23:17;;;;;;;10.07;7.38;;;2.50;67.10;;;;;;4934930;29;20230;-84
2021/04/23 04:25:46;;;;;;;10.13;7.60;;;2.60;66.50;;;;;;4952271;28;20177;-85
2021/04/23 04:28:12;;;;;;;8.07;6.90;;;2.40;66.90;;;;;;4952111;28;20206;-86
2021/04/23 04:30:39;;;;;;;12.63;7.40;;;2.40;67.50;;;;;;4950773;28;20212;-86
2021/04/23 04:33:07;;;;;;;11.43;8.23;;;2.50;66.60;;;;;;4935796;29;20182;-86
2021/04/23 04:35:33;;;;;;;13.27;8.95;;;2.40;66.80;;;;;;4952357;28;20178;-84
2021/04/23 04:37:59;;;;;;;10.73;9.13;;;2.40;67.30;;;;;;4953240;28;20174;-86
2021/04/23 04:40:27;;;;;;;12.18;7.28;;;2.50;67.60;;;;;;4953526;28;20191;-87
2021/04/23 04:42:54;;;;;;;9.50;7.28;;;2.40;67.80;;;;;;4954387;29;20206;-86
2021/04/23 04:45:22;;;;;;;13.20;8.13;;;2.50;68.10;;;;;;4954789;29;20174;-86
2021/04/23 04:47:48;;;;;;;17.08;7.15;;;2.50;68.20;;;;;;4954685;29;20178;-86
2021/04/23 04:50:18;;;;;;;17.87;8.37;;;2.60;67.80;;;;;;4937557;29;20206;-86
2021/04/23 04:52:44;;;;;;;15.90;10.00;;;2.50;67.70;;;;;;4937580;29;20174;-87
2021/04/23 04:55:12;;;;;;;13.10;8.27;;;2.60;68.20;;;;;;4937268;29;20701;-86
2021/04/23 04:57:38;;;;;;;14.35;7.80;;;2.60;67.80;;;;;;4954729;29;20764;-85
2021/04/23 05:00:07;;;;;;;12.88;7.25;;;2.70;67.50;;;;;;4955156;28;20320;-85
2021/04/23 05:02:32;;;;;;;25.73;9.10;;;2.70;67.50;;;;;;4954601;29;20627;-84
2021/04/23 05:04:58;;;;;;;8.00;6.80;;;2.60;67.80;;;;;;4937325;29;20291;-85
2021/04/23 05:07:23;;;;;;;14.57;8.90;;;2.60;67.80;;;;;;4954963;28;20639;-86
2021/04/23 05:09:49;;;;;;;10.70;7.90;;;2.60;67.60;;;;;;4954746;28;20218;-85
2021/04/23 05:12:15;;;;;;;13.70;8.23;;;2.60;67.50;;;;;;4954710;29;20235;-86
2021/04/23 05:14:40;;;;;;;12.23;9.00;;;2.70;68.20;;;;;;4954421;29;20254;-86
2021/04/23 05:17:06;;;;;;;13.23;8.53;;;2.90;67.50;;;;;;4954338;29;20516;-85
2021/04/23 05:19:31;;;;;;;14.63;7.90;;;3.20;66.70;;;;;;4937187;28;20238;-85
2021/04/23 05:21:57;;;;;;;9.70;8.23;;;3.50;65.80;;;;;;4937427;29;20547;-85
2021/04/23 05:24:22;;;;;;;12.50;7.93;;;3.80;64.80;;;;;;4954842;28;20592;-86
2021/04/23 05:26:48;;;;;;;16.40;8.93;;;4.20;62.40;;;;;;4955168;28;20615;-86
2021/04/23 05:29:14;;;;;;;12.40;8.40;;;4.50;60.20;;;;;;4956207;28;20604;-84
2021/04/23 05:31:39;;;;;;;7.90;7.03;;;4.80;59.30;;;;;;4958464;28;20174;-87
2021/04/23 05:34:05;;;;;;;11.73;7.83;;;5.00;58.70;;;;;;4957981;29;20237;-85
2021/04/23 05:36:31;;;;;;;8.60;7.30;;;5.40;58.10;;;;;;4957806;29;20498;-86
2021/04/23 05:38:57;;;;;;;7.93;7.07;;;5.70;57.50;;;;;;4940775;29;20217;-88
2021/04/23 05:41:22;;;;;;;8.23;7.00;;;6.00;56.90;;;;;;4959245;28;20194;-83
2021/04/23 05:43:48;;;;;;;14.53;8.10;;;6.30;56.10;;;;;;4959657;28;20497;-84
2021/04/23 05:46:17;;;;;;;13.17;8.30;;;6.70;55.80;;;;;;4960068;29;20206;-84
2021/04/23 05:48:43;;;;;;;14.53;7.67;;;6.80;55.20;;;;;;4961866;28;20462;-85
2021/04/23 05:51:09;;;;;;;7.93;6.95;;;7.10;54.80;;;;;;4941448;29;20409;-87
2021/04/23 05:53:34;;;;;;;12.07;7.20;;;7.40;54.80;;;;;;4957774;28;20214;-85
2021/04/23 05:56:00;;;;;;;8.70;7.70;;;7.70;53.90;;;;;;4957242;29;20237;-86
2021/04/23 05:58:26;;;;;;;12.60;7.70;;;7.90;53.20;;;;;;4956857;28;20631;-86
2021/04/23 06:00:51;;;;;;;9.93;7.00;;;8.40;52.40;;;;;;4957419;29;20182;-85
2021/04/23 06:03:17;;;;;;;9.93;7.67;;;8.40;52.20;;;;;;4954499;28;20186;-86
2021/04/23 06:05:43;;;;;;;8.73;7.77;;;8.60;51.50;;;;;;4956642;29;20693;-87
2021/04/23 06:08:11;;;;;;;8.10;7.27;;;9.00;51.10;;;;;;4956764;29;20418;-86
2021/04/23 06:10:38;;;;;;;14.20;7.93;;;9.20;51.10;;;;;;4940071;29;20628;-86
2021/04/23 06:13:04;;;;;;;7.70;7.00;;;9.30;51.10;;;;;;4956876;29;20501;-86
2021/04/23 06:15:30;;;;;;;7.73;7.03;;;9.40;50.80;;;;;;4956407;29;20433;-86
2021/04/23 06:17:57;;;;;;;9.37;7.47;;;9.90;50.50;;;;;;4956626;29;20410;-86
2021/04/23 06:20:29;;;;;;;10.23;7.03;;;10.20;48.70;;;;;;4938262;29;20253;-86
2021/04/23 06:22:56;;;;;;;7.50;6.80;;;10.80;48.40;;;;;;4956435;29;20413;-87
2021/04/23 06:25:22;;;;;;;9.40;7.80;;;11.20;47.30;;;;;;4956100;29;20568;-88
2021/04/23 06:27:50;;;;;;;8.43;7.57;;;11.60;46.80;;;;;;4939376;29;20490;-86
2021/04/23 06:30:22;;;;;;;11.47;7.93;;;12.00;45.90;;;;;;4956842;28;20501;-87
2021/04/23 06:32:48;;;;;;;16.83;8.90;;;12.30;45.30;;;;;;4938845;29;20410;-87
2021/04/23 06:35:17;;;;;;;15.00;9.47;;;12.40;44.80;;;;;;4956100;29;20477;-86
2021/04/23 06:37:43;;;;;;;14.87;9.10;;;13.00;44.60;;;;;;4938676;29;20429;-87
2021/04/23 06:40:10;;;;;;;17.40;8.67;;;13.30;43.10;;;;;;4939351;29;20414;-87
2021/04/23 06:42:37;;;;;;;9.93;8.93;;;13.30;43.30;;;;;;4939352;29;20518;-85
2021/04/23 06:45:13;;;;;;;15.97;8.90;;;13.80;42.80;;;;;;4956152;29;20417;-85
2021/04/23 06:47:39;;;;;;;12.43;9.30;;;14.10;41.50;;;;;;4956893;28;20410;-86
2021/04/23 06:50:08;;;;;;;13.43;11.67;;;14.30;41.10;;;;;;4956457;28;20977;-86
2021/04/23 06:52:34;;;;;;;11.60;8.20;;;14.30;41.60;;;;;;4962206;29;20442;-87
2021/04/23 06:54:59;;;;;;;9.77;8.60;;;14.40;41.40;;;;;;4955855;29;20466;-87
2021/04/23 06:57:26;;;;;;;11.10;9.93;;;14.60;41.50;;;;;;4969888;28;20426;-81
2021/04/23 06:59:51;;;;;;;10.03;8.53;;;15.60;42.00;;;;;;4962345;28;20281;-89
2021/04/23 07:02:17;;;;;;;8.23;7.40;;;14.90;40.90;;;;;;4940547;29;20450;-88
2021/04/23 07:04:42;;;;;;;11.27;8.63;;;14.80;40.10;;;;;;4940437;29;20175;-87
2021/04/23 07:07:08;;;;;;;12.70;8.80;;;14.50;40.60;;;;;;4939806;29;20174;-90
2021/04/23 07:09:34;;;;;;;7.00;5.70;;;14.10;41.70;;;;;;4958267;29;20229;-89
2021/04/23 07:12:01;;;;;;;5.90;5.37;;;13.50;40.00;;;;;;4959823;28;20175;-90
2021/04/23 07:14:27;;;;;;;5.70;4.87;;;14.60;42.70;;;;;;4958469;28;20178;-87
2021/04/23 07:16:53;;;;;;;6.87;4.97;;;14.40;44.50;;;;;;4940685;29;20513;-88
2021/04/23 07:19:18;;;;;;;7.57;5.00;;;12.40;42.60;;;;;;4957650;28;20182;-89
2021/04/23 07:21:44;;;;;;;8.00;5.60;;;13.40;41.10;;;;;;4956512;28;20210;-89
2021/04/23 07:24:10;;;;;;;9.40;6.00;;;13.10;39.60;;;;;;4956362;28;20198;-86
2021/04/23 07:26:35;;;;;;;7.73;5.73;;;13.40;40.20;;;;;;4958987;28;20179;-88
2021/04/23 07:29:01;;;;;;;7.57;5.80;;;12.90;41.10;;;;;;4942083;29;20210;-90
2021/04/23 07:31:27;;;;;;;8.83;5.97;;;13.20;40.10;;;;;;4941189;29;20278;-89
2021/04/23 07:33:53;;;;;;;7.43;6.07;;;12.80;40.70;;;;;;4597143;29;10000334;-89
2021/04/23 07:36:18;;;;;;;13.90;6.60;;;12.60;41.20;;;;;;4940068;29;20182;-89
2021/04/23 07:39:10;;;;;;;6.83;6.00;;;12.50;40.80;;;;;;4961968;29;20607;-90
2021/04/23 07:41:36;;;;;;;5.93;5.13;;;12.20;41.20;;;;;;4972769;28;20194;-89
2021/04/23 07:44:06;;;;;;;6.87;6.07;;;12.70;41.20;;;;;;5075696;23;20497;-90
2021/04/23 07:46:35;;;;;;;7.77;5.83;;;14.00;41.20;;;;;;5063391;23;20497;-91
2021/04/23 07:49:01;;;;;;;7.40;6.23;;;15.20;39.70;;;;;;4964424;28;20501;-91
2021/04/23 07:51:27;;;;;;;8.00;6.47;;;14.40;37.90;;;;;;4945874;29;20430;-86
2021/04/23 07:54:07;;;;;;;7.60;6.40;;;18.90;40.80;;;;;;4969097;28;20414;-90
2021/04/23 07:56:34;;;;;;;7.03;6.30;;;12.80;37.40;;;;;;4953836;29;20430;-89
2021/04/23 07:59:06;;;;;;;8.63;7.90;;;12.90;38.50;;;;;;4971037;29;20425;-88
2021/04/23 08:04:42;;;;;;;10.30;6.90;;;12.70;38.50;;;;;;4964314;23;20482;-86
2021/04/23 08:07:11;;;;;;;10.77;7.20;;;12.70;43.20;;;;;;5182343;23;21959;-88
2021/04/23 08:09:39;;;;;;;12.77;6.90;;;13.60;42.90;;;;;;4899141;29;20775;-87
2021/04/23 08:12:05;;;;;;;13.10;6.40;;;12.00;39.00;;;;;;4917493;29;20503;-87
2021/04/23 08:14:31;;;;;;;9.30;7.30;;;12.20;39.20;;;;;;4918081;29;20455;-86
2021/04/23 08:17:08;;;;;;;8.60;6.53;;;12.60;38.90;;;;;;4928441;29;20516;-89
2021/04/23 08:19:44;;;;;;;8.70;6.30;;;12.90;38.70;;;;;;4937262;28;20155;-90
2021/04/23 08:22:10;;;;;;;7.70;7.00;;;15.50;38.40;;;;;;4937981;28;20427;-87
2021/04/23 08:24:35;;;;;;;11.23;7.17;;;15.20;39.70;;;;;;4927658;29;20427;-84
2021/04/23 08:27:01;;;;;;;6.40;5.90;;;13.50;34.30;;;;;;4914789;29;20285;-85
2021/04/23 08:29:53;;;;;;;10.70;7.30;;;17.00;32.50;;;;;;4929167;29;20220;-88
2021/04/23 08:32:22;;;;;;;7.73;7.10;;;18.50;30.00;;;;;;5114632;23;20230;-89
2021/04/23 08:37:23;;;;;;;7.97;7.20;;;19.60;28.80;;;;;;5197634;23;20766;-83
2021/04/23 08:39:50;;;;;;;11.33;5.50;;;20.90;30.00;;;;;;4921733;29;20431;-90
2021/04/23 08:42:16;;;;;;;11.67;6.87;;;18.60;30.50;;;;;;4921867;29;20221;-88
2021/04/23 08:44:45;;;;;;;9.03;6.80;;;17.70;30.10;;;;;;4937899;29;20955;-87
2021/04/23 08:47:14;;;;;;;7.37;6.53;;;18.20;30.00;;;;;;4936798;29;20414;-89
2021/04/23 08:49:41;;;;;;;6.50;5.73;;;21.30;29.90;;;;;;4937970;29;20793;-89
2021/04/23 08:52:07;;;;;;;8.70;5.90;;;20.90;28.80;;;;;;4937010;29;20407;-88
2021/04/23 08:54:33;;;;;;;9.00;6.00;;;20.10;27.80;;;;;;4932806;29;20775;-88
2021/04/23 08:56:58;;;;;;;10.17;7.97;;;19.60;27.90;;;;;;4922497;29;20167;-87
2021/04/23 08:59:24;;;;;;;6.53;5.93;;;17.70;28.50;;;;;;4936453;29;20473;-86
2021/04/23 09:01:49;;;;;;;7.23;6.53;;;17.10;29.30;;;;;;4920154;29;20511;-88
2021/04/23 09:04:15;;;;;;;11.50;6.23;;;16.80;29.90;;;;;;4938877;29;20179;-89
2021/04/23 09:06:41;;;;;;;5.90;5.45;;;16.90;29.20;;;;;;4609273;29;10000444;-88
2021/04/23 09:09:13;;;;;;;6.50;6.00;;;16.90;28.00;;;;;;4943487;29;20211;-88
2021/04/23 09:11:44;;;;;;;5.60;5.20;;;18.60;29.00;;;;;;4945356;29;20194;-90
2021/04/23 09:14:20;;;;;;;10.23;6.47;;;19.00;28.20;;;;;;4947109;29;20850;-89
2021/04/23 09:16:55;;;;;;;5.93;5.40;;;19.30;29.10;;;;;;4930866;29;20597;-88
2021/04/23 09:19:24;;;;;;;5.63;5.10;;;19.20;28.90;;;;;;4947736;29;20426;-88
2021/04/23 09:22:02;;;;;;;5.57;5.27;;;20.10;27.80;;;;;;4950636;29;20430;-86
2021/04/23 09:24:42;;;;;;;5.43;5.13;;;20.10;27.00;;;;;;4957352;29;20414;-88
2021/04/23 09:27:17;;;;;;;7.13;6.37;;;19.70;27.50;;;;;;4948540;29;20431;-90
2021/04/23 09:29:46;;;;;;;6.65;6.10;;;20.60;27.80;;;;;;4946871;29;20433;-89
2021/04/23 09:32:13;;;;;;;37.17;33.47;;;19.90;28.00;;;;;;4952625;29;20176;-86
2021/04/23 09:34:58;;;;;;;7.10;5.50;;;20.90;27.40;;;;;;4954251;29;20443;-87
2021/04/23 09:37:26;;;;;;;6.90;6.00;;;21.20;26.80;;;;;;4938403;29;20411;-87
2021/04/23 09:40:21;;;;;;;8.53;7.60;;;20.80;26.40;;;;;;4935241;29;20446;-87
2021/04/23 09:42:55;;;;;;;31.07;23.97;;;21.80;26.20;;;;;;4939726;29;20443;-85
2021/04/23 09:45:23;;;;;;;23.63;14.57;;;22.50;26.30;;;;;;4914872;29;20494;-88
2021/04/23 09:47:50;;;;;;;17.00;7.87;;;22.60;25.70;;;;;;4919433;29;20468;-89
2021/04/23 09:50:18;;;;;;;16.93;11.60;;;22.80;25.70;;;;;;4940427;29;20479;-85
2021/04/23 09:52:54;;;;;;;5.47;5.17;;;23.00;25.70;;;;;;4925923;29;20435;-86
2021/04/23 09:55:32;;;;;;;8.37;7.17;;;22.80;25.80;;;;;;4924173;29;20423;-89
2021/04/23 09:58:04;;;;;;;6.30;5.73;;;22.60;26.00;;;;;;4925180;29;20439;-87
2021/04/23 10:00:33;;;;;;;8.07;6.53;;;23.30;26.60;;;;;;4924477;29;20479;-84
2021/04/23 10:03:01;;;;;;;5.93;5.43;;;22.70;25.90;;;;;;4923619;29;20783;-88
2021/04/23 10:05:34;;;;;;;37.80;26.93;;;23.80;25.80;;;;;;4942454;29;20415;-87
2021/04/23 10:08:02;;;;;;;8.13;7.33;;;24.00;25.30;;;;;;4926684;29;20438;-88
2021/04/23 10:10:30;;;;;;;8.67;8.00;;;24.40;25.50;;;;;;4919076;29;21044;-89
2021/04/23 10:13:02;;;;;;;9.47;6.13;;;23.70;25.50;;;;;;4920995;29;20419;-90
2021/04/23 10:15:33;;;;;;;9.03;6.40;;;23.90;25.10;;;;;;4902925;29;20443;-87
2021/04/23 10:18:10;;;;;;;9.23;7.80;;;25.60;25.70;;;;;;4923002;29;20515;-88
2021/04/23 10:20:40;;;;;;;7.40;6.70;;;24.60;24.90;;;;;;4922208;29;20432;-91
2021/04/23 10:23:08;;;;;;;6.63;6.00;;;25.40;25.50;;;;;;4923390;29;20926;-90
2021/04/23 10:25:34;;;;;;;8.80;7.10;;;24.90;24.80;;;;;;4905287;29;20432;-90
2021/04/23 10:28:03;;;;;;;8.63;6.10;;;24.90;28.50;;;;;;4919919;29;20540;-89
2021/04/23 10:30:33;;;;;;;6.67;6.23;;;24.50;39.30;;;;;;4921794;29;20467;-88
2021/04/23 10:33:01;;;;;;;6.40;6.10;;;27.60;26.80;;;;;;4923032;29;20417;-88
2021/04/23 10:35:31;;;;;;;8.77;7.90;;;23.50;25.30;;;;;;4905006;29;20447;-88
2021/04/23 10:38:06;;;;;;;9.70;7.10;;;23.50;25.10;;;;;;4902251;29;20523;-89
2021/04/23 10:40:33;;;;;;;7.90;6.93;;;24.20;24.60;;;;;;4922659;29;20430;-91
2021/04/23 10:43:08;;;;;;;6.80;6.17;;;23.10;24.50;;;;;;4903936;29;20432;-88
2021/04/23 10:45:39;;;;;;;7.80;7.00;;;24.30;24.70;;;;;;4917752;29;20547;-88
2021/04/23 10:48:15;;;;;;;9.07;8.13;;;24.30;25.00;;;;;;4917721;29;20428;-85
2021/04/23 10:50:53;;;;;;;9.07;8.03;;;23.40;24.20;;;;;;4916414;29;20511;-86
2021/04/23 10:53:20;;;;;;;6.80;6.37;;;25.20;24.80;;;;;;4916978;29;20423;-88
2021/04/23 10:55:50;;;;;;;12.40;7.00;;;27.60;25.00;;;;;;4580596;29;9999711;-88
2021/04/23 10:58:25;;;;;;;9.33;7.73;;;25.00;24.00;;;;;;4932121;29;20442;-89
2021/04/23 11:00:52;;;;;;;6.80;6.47;;;25.00;24.20;;;;;;4930422;29;20414;-88
2021/04/23 11:03:21;;;;;;;9.30;8.50;;;25.10;24.10;;;;;;4938766;29;20501;-87
2021/04/23 11:05:59;;;;;;;7.77;7.23;;;24.70;24.30;;;;;;4920448;29;20483;-88
2021/04/23 11:08:27;;;;;;;7.70;6.20;;;24.50;24.50;;;;;;4938523;29;20415;-87
2021/04/23 11:11:02;;;;;;;7.53;6.80;;;26.80;24.80;;;;;;4937833;29;20924;-89
2021/04/23 11:13:30;;;;;;;6.70;6.40;;;25.70;24.30;;;;;;4941951;29;20554;-89
2021/04/23 11:16:18;;;;;;;6.40;5.90;;;26.00;24.10;;;;;;4925766;29;20426;-90
2021/04/23 11:18:58;;;;;;;7.60;6.80;;;26.20;23.60;;;;;;4939660;29;20515;-89
2021/04/23 11:21:30;;;;;;;8.73;7.17;;;25.60;24.10;;;;;;4933419;29;20439;-89
2021/04/23 11:24:18;;;;;;;9.50;8.50;;;26.00;24.50;;;;;;4922303;29;20431;-91
2021/04/23 11:26:57;;;;;;;7.17;6.67;;;25.00;24.10;;;;;;4925864;29;20440;-87
2021/04/23 11:29:42;;;;;;;26.67;17.80;;;24.50;24.30;;;;;;4925577;29;20475;-90
2021/04/23 11:32:07;;;;;;;16.00;12.73;;;25.00;25.20;;;;;;4927797;29;20424;-89
2021/04/23 11:34:37;;;;;;;6.70;6.30;;;26.00;24.70;;;;;;4947357;29;20556;-91
2021/04/23 11:37:21;;;;;;;8.30;7.00;;;24.70;23.70;;;;;;4946042;29;20187;-90
2021/04/23 11:39:50;;;;;;;7.13;6.73;;;25.20;24.30;;;;;;4950573;29;20537;-88
2021/04/23 11:42:25;;;;;;;10.17;8.20;;;23.60;23.60;;;;;;4949054;29;20426;-89
2021/04/23 11:45:04;;;;;;;6.20;5.80;;;24.70;24.20;;;;;;4946425;29;20491;-90
2021/04/23 11:47:35;;;;;;;6.40;6.00;;;24.40;24.20;;;;;;4948344;29;20459;-89
2021/04/23 11:50:17;;;;;;;9.80;6.70;;;25.70;24.30;;;;;;4945699;29;20526;-88
2021/04/23 11:52:53;;;;;;;6.80;6.23;;;25.00;24.00;;;;;;4929532;29;20872;-88
2021/04/23 11:55:32;;;;;;;8.13;7.50;;;25.00;24.50;;;;;;4951488;29;20504;-90
2021/04/23 11:58:05;;;;;;;8.03;7.20;;;26.10;23.90;;;;;;4952887;29;20418;-87
2021/04/23 12:00:32;;;;;;;7.63;7.07;;;26.60;24.70;;;;;;4970187;29;20406;-89
2021/04/23 12:02:59;;;;;;;8.00;6.80;;;25.70;24.40;;;;;;4970300;29;20446;-89
2021/04/23 12:05:34;;;;;;;6.97;6.20;;;27.20;24.80;;;;;;4970058;29;20414;-90
2021/04/23 12:08:12;;;;;;;7.07;6.47;;;26.00;25.80;;;;;;4970353;29;20441;-91
2021/04/23 12:10:47;;;;;;;7.33;6.63;;;;;;;;;;4936485;29;20481;-90
2021/04/23 12:13:17;;;;;;;6.93;6.23;;;24.90;23.80;;;;;;4963524;29;20485;-86
2021/04/23 12:15:45;;;;;;;6.67;6.10;;;24.90;24.50;;;;;;4971222;29;20457;-84
2021/04/23 12:18:11;;;;;;;13.70;6.23;;;26.30;24.70;;;;;;4953252;29;20478;-85
2021/04/23 12:20:49;;;;;;;5.80;5.47;;;25.60;24.10;;;;;;4967466;29;20406;-90
2021/04/23 12:23:36;;;;;;;7.07;6.10;;;25.50;24.10;;;;;;4945049;29;20437;-90
2021/04/23 12:26:09;;;;;;;7.03;6.20;;;25.00;23.80;;;;;;4955564;29;20613;-86
2021/04/23 12:28:41;;;;;;;7.77;5.40;;;25.70;24.10;;;;;;4938649;29;21001;-87
2021/04/23 12:31:20;;;;;;;6.00;5.57;;;24.20;24.50;;;;;;4955500;29;20444;-86
2021/04/23 12:33:58;;;;;;;6.80;6.17;;;24.90;24.50;;;;;;4957129;29;20425;-88
2021/04/23 12:36:27;;;;;;;6.23;5.87;;;25.10;24.50;;;;;;4938824;29;20469;-88
2021/04/23 12:39:00;;;;;;;10.87;6.47;;;25.20;24.30;;;;;;4957954;28;20485;-87
2021/04/23 12:41:31;;;;;;;6.60;6.03;;;25.20;23.90;;;;;;4960264;29;20402;-87
2021/04/23 12:44:08;;;;;;;6.60;6.20;;;25.30;24.00;;;;;;4943266;29;20444;-86
2021/04/23 12:46:37;;;;;;;7.10;6.40;;;24.20;24.30;;;;;;4960909;29;20442;-86
2021/04/23 12:49:38;;;;;;;7.27;6.60;;;25.90;25.40;;;;;;4962255;29;20497;-89
2021/04/23 12:52:13;;;;;;;6.60;6.00;;;24.30;24.60;;;;;;4960335;29;20884;-87
2021/04/23 12:54:40;;;;;;;11.20;6.27;;;24.50;24.30;;;;;;4944836;29;20417;-88
2021/04/23 12:57:08;;;;;;;5.73;5.33;;;24.60;24.20;;;;;;4943694;29;20505;-87
2021/04/23 12:59:54;;;;;;;6.15;5.65;;;25.00;24.00;;;;;;4725775;29;10001094;-87
2021/04/23 13:02:22;;;;;;;5.20;4.93;;;25.70;24.00;;;;;;4922067;29;20387;-87
2021/04/23 13:05:14;;;;;;;6.07;5.60;;;25.70;23.90;;;;;;4936603;29;20459;-89
2021/04/23 13:07:53;;;;;;;6.07;5.60;;;25.60;23.80;;;;;;4938093;29;20890;-88